sensor_id;sensor_type;location;lat;lon;timestamp;P1;durP1;ratioP1;P2;durP2;ratioP2
53646;SDS011;39550;52.230;5.194;2023-05-24T00:00:19;7.18;;;3.33;;
53646;SDS011;39550;52.230;5.194;2023-05-24T00:02:46;9.57;;;3.30;;
53646;SDS011;39550;52.230;5.194;2023-05-24T00:05:12;9.18;;;3.75;;
53646;SDS011;39550;52.230;5.194;2023-05-24T00:07:38;9.68;;;3.50;;
53646;SDS011;39550;52.230;5.194;2023-05-24T00:10:04;7.75;;;3.20;;
53646;SDS011;39550;52.230;5.194;2023-05-24T00:12:31;7.82;;;3.30;;
53646;SDS011;39550;52.230;5.194;2023-05-24T00:14:57;9.52;;;3.78;;
53646;SDS011;39550;52.230;5.194;2023-05-24T00:17:22;6.60;;;3.63;;
53646;SDS011;39550;52.230;5.194;2023-05-24T00:19:48;8.70;;;3.60;;
53646;SDS011;39550;52.230;5.194;2023-05-24T00:22:14;6.65;;;3.20;;
53646;SDS011;39550;52.230;5.194;2023-05-24T00:24:39;7.22;;;3.67;;
53646;SDS011;39550;52.230;5.194;2023-05-24T00:27:05;9.18;;;3.33;;
53646;SDS011;39550;52.230;5.194;2023-05-24T00:29:31;9.98;;;3.72;;
53646;SDS011;39550;52.230;5.194;2023-05-24T00:31:56;11.48;;;3.97;;
53646;SDS011;39550;52.230;5.194;2023-05-24T00:34:21;10.05;;;3.67;;
53646;SDS011;39550;52.230;5.194;2023-05-24T00:36:47;9.38;;;4.15;;
53646;SDS011;39550;52.230;5.194;2023-05-24T00:39:12;8.82;;;3.80;;
53646;SDS011;39550;52.230;5.194;2023-05-24T00:41:37;7.85;;;3.35;;
53646;SDS011;39550;52.230;5.194;2023-05-24T00:44:03;8.55;;;3.53;;
53646;SDS011;39550;52.230;5.194;2023-05-24T00:46:31;8.40;;;3.65;;
53646;SDS011;39550;52.230;5.194;2023-05-24T00:48:57;6.00;;;3.22;;
53646;SDS011;39550;52.230;5.194;2023-05-24T00:51:24;8.52;;;3.72;;
53646;SDS011;39550;52.230;5.194;2023-05-24T00:53:52;7.38;;;3.70;;
53646;SDS011;39550;52.230;5.194;2023-05-24T00:56:18;8.82;;;3.60;;
53646;SDS011;39550;52.230;5.194;2023-05-24T00:58:44;10.07;;;3.95;;
53646;SDS011;39550;52.230;5.194;2023-05-24T01:01:10;7.00;;;3.45;;
53646;SDS011;39550;52.230;5.194;2023-05-24T01:03:36;6.90;;;3.78;;
53646;SDS011;39550;52.230;5.194;2023-05-24T01:06:02;6.95;;;3.42;;
53646;SDS011;39550;52.230;5.194;2023-05-24T01:28:19;6.78;;;2.97;;
53646;SDS011;39550;52.230;5.194;2023-05-24T01:30:46;8.23;;;3.40;;
53646;SDS011;39550;52.230;5.194;2023-05-24T01:33:12;7.90;;;3.58;;
53646;SDS011;39550;52.230;5.194;2023-05-24T01:35:38;9.13;;;3.53;;
53646;SDS011;39550;52.230;5.194;2023-05-24T01:38:07;10.27;;;3.90;;
53646;SDS011;39550;52.230;5.194;2023-05-24T01:40:34;8.43;;;3.83;;
53646;SDS011;39550;52.230;5.194;2023-05-24T01:48:35;9.23;;;3.88;;
53646;SDS011;39550;52.230;5.194;2023-05-24T01:51:06;9.48;;;3.75;;
53646;SDS011;39550;52.230;5.194;2023-05-24T01:53:40;7.57;;;3.70;;
53646;SDS011;39550;52.230;5.194;2023-05-24T01:56:10;9.90;;;3.65;;
53646;SDS011;39550;52.230;5.194;2023-05-24T01:58:37;10.15;;;3.85;;
53646;SDS011;39550;52.230;5.194;2023-05-24T02:01:06;7.13;;;3.53;;
53646;SDS011;39550;52.230;5.194;2023-05-24T02:03:31;8.20;;;3.53;;
53646;SDS011;39550;52.230;5.194;2023-05-24T02:05:57;7.20;;;3.35;;
53646;SDS011;39550;52.230;5.194;2023-05-24T02:08:22;10.88;;;4.03;;
53646;SDS011;39550;52.230;5.194;2023-05-24T02:10:48;8.35;;;3.50;;
53646;SDS011;39550;52.230;5.194;2023-05-24T02:13:13;10.95;;;3.97;;
53646;SDS011;39550;52.230;5.194;2023-05-24T02:15:41;9.45;;;4.60;;
53646;SDS011;39550;52.230;5.194;2023-05-24T02:18:08;6.97;;;3.60;;
53646;SDS011;39550;52.230;5.194;2023-05-24T02:20:35;7.15;;;3.33;;
53646;SDS011;39550;52.230;5.194;2023-05-24T02:23:01;8.07;;;3.60;;
53646;SDS011;39550;52.230;5.194;2023-05-24T02:25:27;7.00;;;3.20;;
53646;SDS011;39550;52.230;5.194;2023-05-24T02:27:53;8.38;;;3.75;;
53646;SDS011;39550;52.230;5.194;2023-05-24T02:30:18;9.20;;;3.38;;
53646;SDS011;39550;52.230;5.194;2023-05-24T02:32:43;8.10;;;3.25;;
53646;SDS011;39550;52.230;5.194;2023-05-24T02:35:09;7.20;;;3.72;;
53646;SDS011;39550;52.230;5.194;2023-05-24T02:37:34;7.05;;;3.63;;
53646;SDS011;39550;52.230;5.194;2023-05-24T02:40:00;7.97;;;3.40;;
53646;SDS011;39550;52.230;5.194;2023-05-24T02:42:25;8.23;;;3.28;;
53646;SDS011;39550;52.230;5.194;2023-05-24T02:44:50;8.57;;;3.97;;
53646;SDS011;39550;52.230;5.194;2023-05-24T02:47:17;8.50;;;3.78;;
53646;SDS011;39550;52.230;5.194;2023-05-24T02:49:43;9.63;;;4.13;;
53646;SDS011;39550;52.230;5.194;2023-05-24T02:52:09;10.38;;;3.97;;
53646;SDS011;39550;52.230;5.194;2023-05-24T02:54:34;7.57;;;3.58;;
53646;SDS011;39550;52.230;5.194;2023-05-24T02:57:00;9.50;;;3.75;;
53646;SDS011;39550;52.230;5.194;2023-05-24T02:59:26;9.13;;;3.85;;
53646;SDS011;39550;52.230;5.194;2023-05-24T03:01:52;8.85;;;4.40;;
53646;SDS011;39550;52.230;5.194;2023-05-24T03:04:17;8.00;;;3.33;;
53646;SDS011;39550;52.230;5.194;2023-05-24T03:06:42;10.07;;;4.13;;
53646;SDS011;39550;52.230;5.194;2023-05-24T03:09:07;8.02;;;3.53;;
53646;SDS011;39550;52.230;5.194;2023-05-24T03:11:33;10.35;;;3.97;;
53646;SDS011;39550;52.230;5.194;2023-05-24T03:13:58;8.65;;;3.92;;
53646;SDS011;39550;52.230;5.194;2023-05-24T03:16:23;11.93;;;4.28;;
53646;SDS011;39550;52.230;5.194;2023-05-24T03:18:49;10.35;;;4.32;;
53646;SDS011;39550;52.230;5.194;2023-05-24T03:21:15;6.95;;;3.55;;
53646;SDS011;39550;52.230;5.194;2023-05-24T03:23:41;10.40;;;4.05;;
53646;SDS011;39550;52.230;5.194;2023-05-24T03:26:06;9.27;;;4.40;;
53646;SDS011;39550;52.230;5.194;2023-05-24T03:28:32;8.52;;;4.43;;
53646;SDS011;39550;52.230;5.194;2023-05-24T03:30:57;10.23;;;4.05;;
53646;SDS011;39550;52.230;5.194;2023-05-24T03:33:23;6.35;;;3.65;;
53646;SDS011;39550;52.230;5.194;2023-05-24T03:35:48;8.18;;;3.83;;
53646;SDS011;39550;52.230;5.194;2023-05-24T03:38:14;13.32;;;4.00;;
53646;SDS011;39550;52.230;5.194;2023-05-24T03:40:39;9.57;;;4.28;;
53646;SDS011;39550;52.230;5.194;2023-05-24T03:43:04;11.00;;;4.13;;
53646;SDS011;39550;52.230;5.194;2023-05-24T03:45:30;5.93;;;3.30;;
53646;SDS011;39550;52.230;5.194;2023-05-24T03:47:55;8.40;;;3.78;;
53646;SDS011;39550;52.230;5.194;2023-05-24T03:50:20;6.78;;;3.90;;
53646;SDS011;39550;52.230;5.194;2023-05-24T03:52:45;8.75;;;3.88;;
53646;SDS011;39550;52.230;5.194;2023-05-24T03:55:12;7.20;;;3.85;;
53646;SDS011;39550;52.230;5.194;2023-05-24T03:57:38;9.10;;;3.60;;
53646;SDS011;39550;52.230;5.194;2023-05-24T04:00:05;8.48;;;3.80;;
53646;SDS011;39550;52.230;5.194;2023-05-24T04:02:32;8.35;;;4.25;;
53646;SDS011;39550;52.230;5.194;2023-05-24T04:04:57;8.60;;;3.95;;
53646;SDS011;39550;52.230;5.194;2023-05-24T04:07:23;9.18;;;3.97;;
53646;SDS011;39550;52.230;5.194;2023-05-24T04:09:48;8.50;;;3.95;;
53646;SDS011;39550;52.230;5.194;2023-05-24T04:12:14;9.32;;;3.90;;
53646;SDS011;39550;52.230;5.194;2023-05-24T04:14:39;7.00;;;4.22;;
53646;SDS011;39550;52.230;5.194;2023-05-24T04:17:04;9.68;;;4.28;;
53646;SDS011;39550;52.230;5.194;2023-05-24T04:19:31;8.05;;;4.03;;
53646;SDS011;39550;52.230;5.194;2023-05-24T04:21:57;9.30;;;4.32;;
53646;SDS011;39550;52.230;5.194;2023-05-24T04:24:22;7.35;;;3.90;;
53646;SDS011;39550;52.230;5.194;2023-05-24T04:26:47;8.32;;;3.70;;
53646;SDS011;39550;52.230;5.194;2023-05-24T04:29:13;8.35;;;3.10;;
53646;SDS011;39550;52.230;5.194;2023-05-24T04:31:39;7.30;;;3.90;;
53646;SDS011;39550;52.230;5.194;2023-05-24T04:34:07;7.60;;;4.20;;
53646;SDS011;39550;52.230;5.194;2023-05-24T04:36:34;8.35;;;4.00;;
53646;SDS011;39550;52.230;5.194;2023-05-24T04:38:59;8.00;;;3.83;;
53646;SDS011;39550;52.230;5.194;2023-05-24T04:41:28;9.25;;;4.15;;
53646;SDS011;39550;52.230;5.194;2023-05-24T04:43:56;10.38;;;4.57;;
53646;SDS011;39550;52.230;5.194;2023-05-24T04:46:23;9.80;;;4.32;;
53646;SDS011;39550;52.230;5.194;2023-05-24T04:48:49;8.23;;;4.32;;
53646;SDS011;39550;52.230;5.194;2023-05-24T04:51:15;11.25;;;4.63;;
53646;SDS011;39550;52.230;5.194;2023-05-24T04:53:40;9.05;;;4.15;;
53646;SDS011;39550;52.230;5.194;2023-05-24T04:56:06;9.13;;;4.82;;
53646;SDS011;39550;52.230;5.194;2023-05-24T04:58:32;9.48;;;3.78;;
53646;SDS011;39550;52.230;5.194;2023-05-24T05:00:59;9.43;;;4.10;;
53646;SDS011;39550;52.230;5.194;2023-05-24T05:03:24;9.63;;;3.83;;
53646;SDS011;39550;52.230;5.194;2023-05-24T05:05:50;8.35;;;3.88;;
53646;SDS011;39550;52.230;5.194;2023-05-24T05:08:15;10.52;;;4.38;;
53646;SDS011;39550;52.230;5.194;2023-05-24T05:10:41;9.02;;;4.32;;
53646;SDS011;39550;52.230;5.194;2023-05-24T05:13:06;8.32;;;4.18;;
53646;SDS011;39550;52.230;5.194;2023-05-24T05:15:31;7.93;;;4.53;;
53646;SDS011;39550;52.230;5.194;2023-05-24T05:17:57;10.00;;;4.75;;
53646;SDS011;39550;52.230;5.194;2023-05-24T05:20:23;9.63;;;4.55;;
53646;SDS011;39550;52.230;5.194;2023-05-24T05:22:48;8.90;;;4.30;;
53646;SDS011;39550;52.230;5.194;2023-05-24T05:25:14;10.85;;;4.07;;
53646;SDS011;39550;52.230;5.194;2023-05-24T05:27:39;11.18;;;4.38;;
53646;SDS011;39550;52.230;5.194;2023-05-24T05:30:05;9.73;;;4.38;;
53646;SDS011;39550;52.230;5.194;2023-05-24T05:32:32;11.65;;;4.40;;
53646;SDS011;39550;52.230;5.194;2023-05-24T05:34:57;7.70;;;3.75;;
53646;SDS011;39550;52.230;5.194;2023-05-24T05:37:22;8.00;;;3.88;;
53646;SDS011;39550;52.230;5.194;2023-05-24T05:39:48;9.88;;;4.03;;
53646;SDS011;39550;52.230;5.194;2023-05-24T05:42:13;9.25;;;4.43;;
53646;SDS011;39550;52.230;5.194;2023-05-24T05:44:38;9.18;;;4.65;;
53646;SDS011;39550;52.230;5.194;2023-05-24T05:47:04;14.07;;;4.57;;
53646;SDS011;39550;52.230;5.194;2023-05-24T05:49:31;9.73;;;4.20;;
53646;SDS011;39550;52.230;5.194;2023-05-24T05:52:00;9.70;;;4.20;;
53646;SDS011;39550;52.230;5.194;2023-05-24T05:54:25;11.55;;;4.90;;
53646;SDS011;39550;52.230;5.194;2023-05-24T05:56:52;9.85;;;4.50;;
53646;SDS011;39550;52.230;5.194;2023-05-24T05:59:17;9.00;;;4.68;;
53646;SDS011;39550;52.230;5.194;2023-05-24T06:01:43;8.75;;;4.43;;
53646;SDS011;39550;52.230;5.194;2023-05-24T06:06:38;9.93;;;4.70;;
53646;SDS011;39550;52.230;5.194;2023-05-24T06:09:03;8.63;;;4.38;;
53646;SDS011;39550;52.230;5.194;2023-05-24T06:11:29;11.85;;;5.78;;
53646;SDS011;39550;52.230;5.194;2023-05-24T06:13:54;10.02;;;4.13;;
53646;SDS011;39550;52.230;5.194;2023-05-24T06:16:20;10.38;;;4.40;;
53646;SDS011;39550;52.230;5.194;2023-05-24T06:18:45;12.73;;;4.70;;
53646;SDS011;39550;52.230;5.194;2023-05-24T06:21:12;11.88;;;4.85;;
53646;SDS011;39550;52.230;5.194;2023-05-24T06:23:38;10.32;;;4.88;;
53646;SDS011;39550;52.230;5.194;2023-05-24T06:26:04;9.98;;;4.45;;
53646;SDS011;39550;52.230;5.194;2023-05-24T06:28:30;10.23;;;4.20;;
53646;SDS011;39550;52.230;5.194;2023-05-24T06:30:56;11.75;;;4.93;;
53646;SDS011;39550;52.230;5.194;2023-05-24T06:33:21;10.60;;;4.32;;
53646;SDS011;39550;52.230;5.194;2023-05-24T06:35:47;8.52;;;4.55;;
53646;SDS011;39550;52.230;5.194;2023-05-24T06:38:15;8.32;;;4.60;;
53646;SDS011;39550;52.230;5.194;2023-05-24T06:40:41;10.65;;;3.72;;
53646;SDS011;39550;52.230;5.194;2023-05-24T06:43:07;12.27;;;4.30;;
53646;SDS011;39550;52.230;5.194;2023-05-24T06:45:32;14.85;;;4.38;;
53646;SDS011;39550;52.230;5.194;2023-05-24T06:47:57;6.65;;;3.40;;
53646;SDS011;39550;52.230;5.194;2023-05-24T06:50:23;10.90;;;4.18;;
53646;SDS011;39550;52.230;5.194;2023-05-24T06:52:48;8.70;;;4.32;;
53646;SDS011;39550;52.230;5.194;2023-05-24T06:55:14;7.97;;;3.70;;
53646;SDS011;39550;52.230;5.194;2023-05-24T06:57:39;9.07;;;3.55;;
53646;SDS011;39550;52.230;5.194;2023-05-24T07:00:05;10.60;;;4.07;;
53646;SDS011;39550;52.230;5.194;2023-05-24T07:02:35;9.40;;;4.03;;
53646;SDS011;39550;52.230;5.194;2023-05-24T07:05:01;9.55;;;3.78;;
53646;SDS011;39550;52.230;5.194;2023-05-24T07:07:26;9.43;;;3.83;;
53646;SDS011;39550;52.230;5.194;2023-05-24T07:09:52;11.02;;;4.15;;
53646;SDS011;39550;52.230;5.194;2023-05-24T07:12:17;9.45;;;4.38;;
53646;SDS011;39550;52.230;5.194;2023-05-24T07:14:42;9.98;;;3.58;;
53646;SDS011;39550;52.230;5.194;2023-05-24T07:17:07;7.97;;;4.05;;
53646;SDS011;39550;52.230;5.194;2023-05-24T07:19:33;10.65;;;4.15;;
53646;SDS011;39550;52.230;5.194;2023-05-24T07:21:59;8.48;;;4.82;;
53646;SDS011;39550;52.230;5.194;2023-05-24T07:24:25;9.05;;;4.05;;
53646;SDS011;39550;52.230;5.194;2023-05-24T07:26:50;12.07;;;4.03;;
53646;SDS011;39550;52.230;5.194;2023-05-24T07:29:17;9.25;;;3.80;;
53646;SDS011;39550;52.230;5.194;2023-05-24T07:31:43;7.43;;;3.75;;
53646;SDS011;39550;52.230;5.194;2023-05-24T07:34:08;9.35;;;3.55;;
53646;SDS011;39550;52.230;5.194;2023-05-24T07:36:34;7.43;;;3.60;;
53646;SDS011;39550;52.230;5.194;2023-05-24T07:38:59;7.15;;;3.17;;
53646;SDS011;39550;52.230;5.194;2023-05-24T07:41:26;9.43;;;4.20;;
53646;SDS011;39550;52.230;5.194;2023-05-24T07:43:53;11.55;;;4.63;;
53646;SDS011;39550;52.230;5.194;2023-05-24T07:46:18;18.13;;;5.00;;
53646;SDS011;39550;52.230;5.194;2023-05-24T07:48:44;12.75;;;4.43;;
53646;SDS011;39550;52.230;5.194;2023-05-24T07:51:09;17.55;;;4.90;;
53646;SDS011;39550;52.230;5.194;2023-05-24T07:53:35;13.43;;;4.25;;
53646;SDS011;39550;52.230;5.194;2023-05-24T07:56:01;15.98;;;4.68;;
53646;SDS011;39550;52.230;5.194;2023-05-24T07:58:27;11.18;;;4.78;;
53646;SDS011;39550;52.230;5.194;2023-05-24T08:00:52;18.38;;;4.68;;
53646;SDS011;39550;52.230;5.194;2023-05-24T08:03:18;11.93;;;4.80;;
53646;SDS011;39550;52.230;5.194;2023-05-24T08:05:43;13.50;;;4.78;;
53646;SDS011;39550;52.230;5.194;2023-05-24T08:08:08;16.45;;;5.45;;
53646;SDS011;39550;52.230;5.194;2023-05-24T08:10:34;15.60;;;4.93;;
53646;SDS011;39550;52.230;5.194;2023-05-24T08:12:59;13.13;;;4.35;;
53646;SDS011;39550;52.230;5.194;2023-05-24T08:15:25;12.93;;;4.70;;
53646;SDS011;39550;52.230;5.194;2023-05-24T08:17:50;12.90;;;5.10;;
53646;SDS011;39550;52.230;5.194;2023-05-24T08:20:15;13.10;;;4.32;;
53646;SDS011;39550;52.230;5.194;2023-05-24T08:22:41;11.38;;;4.93;;
53646;SDS011;39550;52.230;5.194;2023-05-24T08:25:08;12.35;;;4.43;;
53646;SDS011;39550;52.230;5.194;2023-05-24T08:27:34;11.25;;;4.47;;
53646;SDS011;39550;52.230;5.194;2023-05-24T08:29:59;10.27;;;4.55;;
53646;SDS011;39550;52.230;5.194;2023-05-24T08:32:25;12.25;;;5.13;;
53646;SDS011;39550;52.230;5.194;2023-05-24T08:34:50;11.07;;;4.10;;
53646;SDS011;39550;52.230;5.194;2023-05-24T08:37:16;11.57;;;4.88;;
53646;SDS011;39550;52.230;5.194;2023-05-24T08:39:44;12.77;;;4.28;;
53646;SDS011;39550;52.230;5.194;2023-05-24T08:42:10;10.38;;;4.07;;
53646;SDS011;39550;52.230;5.194;2023-05-24T08:44:46;12.65;;;5.00;;
53646;SDS011;39550;52.230;5.194;2023-05-24T08:47:16;10.88;;;3.65;;
53646;SDS011;39550;52.230;5.194;2023-05-24T08:49:45;15.50;;;5.38;;
53646;SDS011;39550;52.230;5.194;2023-05-24T08:52:11;8.90;;;4.45;;
53646;SDS011;39550;52.230;5.194;2023-05-24T08:54:38;14.80;;;4.55;;
53646;SDS011;39550;52.230;5.194;2023-05-24T08:57:04;11.32;;;4.18;;
53646;SDS011;39550;52.230;5.194;2023-05-24T08:59:31;9.40;;;4.00;;
53646;SDS011;39550;52.230;5.194;2023-05-24T09:01:56;13.65;;;4.72;;
53646;SDS011;39550;52.230;5.194;2023-05-24T09:04:21;12.27;;;5.05;;
53646;SDS011;39550;52.230;5.194;2023-05-24T09:06:48;10.70;;;4.65;;
53646;SDS011;39550;52.230;5.194;2023-05-24T09:09:17;10.82;;;4.78;;
53646;SDS011;39550;52.230;5.194;2023-05-24T09:11:45;11.18;;;4.93;;
53646;SDS011;39550;52.230;5.194;2023-05-24T09:14:13;11.73;;;4.07;;
53646;SDS011;39550;52.230;5.194;2023-05-24T09:16:39;12.80;;;4.22;;
53646;SDS011;39550;52.230;5.194;2023-05-24T09:19:05;12.90;;;4.95;;
53646;SDS011;39550;52.230;5.194;2023-05-24T09:21:30;14.80;;;5.15;;
53646;SDS011;39550;52.230;5.194;2023-05-24T09:23:56;12.38;;;4.45;;
53646;SDS011;39550;52.230;5.194;2023-05-24T09:26:22;13.77;;;5.28;;
53646;SDS011;39550;52.230;5.194;2023-05-24T09:28:48;11.00;;;4.00;;
53646;SDS011;39550;52.230;5.194;2023-05-24T09:31:15;13.73;;;4.70;;
53646;SDS011;39550;52.230;5.194;2023-05-24T09:33:40;14.05;;;5.28;;
53646;SDS011;39550;52.230;5.194;2023-05-24T09:36:06;11.20;;;4.65;;
53646;SDS011;39550;52.230;5.194;2023-05-24T09:38:31;11.23;;;5.15;;
53646;SDS011;39550;52.230;5.194;2023-05-24T09:41:01;13.63;;;4.43;;
53646;SDS011;39550;52.230;5.194;2023-05-24T09:43:30;11.27;;;4.57;;
53646;SDS011;39550;52.230;5.194;2023-05-24T09:45:59;11.00;;;4.47;;
53646;SDS011;39550;52.230;5.194;2023-05-24T09:48:27;9.60;;;4.05;;
53646;SDS011;39550;52.230;5.194;2023-05-24T09:51:03;17.02;;;5.70;;
53646;SDS011;39550;52.230;5.194;2023-05-24T09:53:30;13.40;;;4.55;;
53646;SDS011;39550;52.230;5.194;2023-05-24T09:55:57;11.98;;;4.63;;
53646;SDS011;39550;52.230;5.194;2023-05-24T09:58:27;10.10;;;4.10;;
53646;SDS011;39550;52.230;5.194;2023-05-24T10:01:01;10.98;;;4.40;;
53646;SDS011;39550;52.230;5.194;2023-05-24T10:03:30;10.63;;;4.32;;
53646;SDS011;39550;52.230;5.194;2023-05-24T10:05:55;13.25;;;4.05;;
53646;SDS011;39550;52.230;5.194;2023-05-24T10:08:22;12.63;;;4.60;;
53646;SDS011;39550;52.230;5.194;2023-05-24T10:10:48;12.80;;;5.03;;
53646;SDS011;39550;52.230;5.194;2023-05-24T10:13:13;12.05;;;4.60;;
53646;SDS011;39550;52.230;5.194;2023-05-24T10:15:41;10.88;;;4.35;;
53646;SDS011;39550;52.230;5.194;2023-05-24T10:28:22;11.18;;;4.20;;
53646;SDS011;39550;52.230;5.194;2023-05-24T10:33:23;7.55;;;3.90;;
53646;SDS011;39550;52.230;5.194;2023-05-24T10:35:49;10.10;;;4.30;;
53646;SDS011;39550;52.230;5.194;2023-05-24T10:38:15;10.57;;;4.30;;
53646;SDS011;39550;52.230;5.194;2023-05-24T10:40:41;9.43;;;4.00;;
53646;SDS011;39550;52.230;5.194;2023-05-24T10:43:07;10.15;;;4.10;;
53646;SDS011;39550;52.230;5.194;2023-05-24T10:45:37;9.32;;;3.90;;
53646;SDS011;39550;52.230;5.194;2023-05-24T10:48:08;10.98;;;4.70;;
53646;SDS011;39550;52.230;5.194;2023-05-24T10:50:55;10.73;;;4.57;;
53646;SDS011;39550;52.230;5.194;2023-05-24T10:53:21;8.65;;;3.72;;
53646;SDS011;39550;52.230;5.194;2023-05-24T10:55:56;9.10;;;4.17;;
53646;SDS011;39550;52.230;5.194;2023-05-24T10:59:05;8.75;;;4.10;;
53646;SDS011;39550;52.230;5.194;2023-05-24T11:04:10;10.40;;;3.90;;
53646;SDS011;39550;52.230;5.194;2023-05-24T11:06:51;8.85;;;4.13;;
53646;SDS011;39550;52.230;5.194;2023-05-24T11:09:19;8.88;;;3.60;;
53646;SDS011;39550;52.230;5.194;2023-05-24T11:11:46;8.00;;;3.83;;
53646;SDS011;39550;52.230;5.194;2023-05-24T11:14:16;7.80;;;3.50;;
53646;SDS011;39550;52.230;5.194;2023-05-24T11:16:44;7.93;;;3.67;;
53646;SDS011;39550;52.230;5.194;2023-05-24T11:19:20;7.03;;;3.67;;
53646;SDS011;39550;52.230;5.194;2023-05-24T11:21:53;10.70;;;3.80;;
53646;SDS011;39550;52.230;5.194;2023-05-24T11:24:24;6.95;;;3.35;;
53646;SDS011;39550;52.230;5.194;2023-05-24T11:26:50;7.38;;;3.78;;
53646;SDS011;39550;52.230;5.194;2023-05-24T11:29:18;8.38;;;4.75;;
53646;SDS011;39550;52.230;5.194;2023-05-24T11:31:50;11.95;;;3.97;;
53646;SDS011;39550;52.230;5.194;2023-05-24T11:34:17;7.18;;;3.55;;
53646;SDS011;39550;52.230;5.194;2023-05-24T11:36:43;7.88;;;3.70;;
53646;SDS011;39550;52.230;5.194;2023-05-24T11:39:10;9.00;;;3.63;;
53646;SDS011;39550;52.230;5.194;2023-05-24T11:41:37;9.52;;;3.92;;
53646;SDS011;39550;52.230;5.194;2023-05-24T11:44:03;7.68;;;3.55;;
53646;SDS011;39550;52.230;5.194;2023-05-24T11:46:30;6.68;;;3.85;;
53646;SDS011;39550;52.230;5.194;2023-05-24T11:48:56;6.68;;;3.40;;
53646;SDS011;39550;52.230;5.194;2023-05-24T11:51:28;7.80;;;3.60;;
53646;SDS011;39550;52.230;5.194;2023-05-24T11:53:55;7.90;;;3.75;;
53646;SDS011;39550;52.230;5.194;2023-05-24T11:56:21;5.72;;;3.30;;
53646;SDS011;39550;52.230;5.194;2023-05-24T11:58:47;8.02;;;3.40;;
53646;SDS011;39550;52.230;5.194;2023-05-24T12:01:26;6.50;;;4.00;;
53646;SDS011;39550;52.230;5.194;2023-05-24T12:03:52;7.35;;;3.55;;
53646;SDS011;39550;52.230;5.194;2023-05-24T12:06:19;6.13;;;3.42;;
53646;SDS011;39550;52.230;5.194;2023-05-24T12:08:45;8.20;;;3.28;;
53646;SDS011;39550;52.230;5.194;2023-05-24T12:11:11;7.28;;;3.38;;
53646;SDS011;39550;52.230;5.194;2023-05-24T12:13:38;5.72;;;3.53;;
53646;SDS011;39550;52.230;5.194;2023-05-24T12:16:04;7.80;;;3.63;;
53646;SDS011;39550;52.230;5.194;2023-05-24T12:18:30;8.15;;;3.80;;
53646;SDS011;39550;52.230;5.194;2023-05-24T12:20:56;6.18;;;3.40;;
53646;SDS011;39550;52.230;5.194;2023-05-24T12:23:25;7.13;;;3.35;;
53646;SDS011;39550;52.230;5.194;2023-05-24T12:26:00;10.00;;;3.88;;
53646;SDS011;39550;52.230;5.194;2023-05-24T12:28:26;7.15;;;3.33;;
53646;SDS011;39550;52.230;5.194;2023-05-24T12:30:52;10.18;;;3.42;;
53646;SDS011;39550;52.230;5.194;2023-05-24T12:33:18;8.60;;;3.42;;
53646;SDS011;39550;52.230;5.194;2023-05-24T12:35:44;7.50;;;3.40;;
53646;SDS011;39550;52.230;5.194;2023-05-24T12:38:11;9.65;;;3.35;;
53646;SDS011;39550;52.230;5.194;2023-05-24T12:40:39;7.60;;;4.00;;
53646;SDS011;39550;52.230;5.194;2023-05-24T12:43:07;6.93;;;3.47;;
53646;SDS011;39550;52.230;5.194;2023-05-24T12:45:34;6.70;;;3.25;;
53646;SDS011;39550;52.230;5.194;2023-05-24T12:48:01;10.05;;;3.83;;
53646;SDS011;39550;52.230;5.194;2023-05-24T12:50:28;9.35;;;3.47;;
53646;SDS011;39550;52.230;5.194;2023-05-24T12:52:54;9.20;;;3.10;;
53646;SDS011;39550;52.230;5.194;2023-05-24T12:55:24;7.57;;;3.15;;
53646;SDS011;39550;52.230;5.194;2023-05-24T12:57:51;7.60;;;3.40;;
53646;SDS011;39550;52.230;5.194;2023-05-24T13:00:22;8.98;;;3.35;;
53646;SDS011;39550;52.230;5.194;2023-05-24T13:02:50;7.93;;;3.65;;
53646;SDS011;39550;52.230;5.194;2023-05-24T13:05:19;7.78;;;3.33;;
53646;SDS011;39550;52.230;5.194;2023-05-24T13:07:45;6.25;;;2.95;;
53646;SDS011;39550;52.230;5.194;2023-05-24T13:10:10;7.22;;;3.42;;
53646;SDS011;39550;52.230;5.194;2023-05-24T13:12:36;9.40;;;3.15;;
53646;SDS011;39550;52.230;5.194;2023-05-24T13:15:02;6.60;;;3.08;;
53646;SDS011;39550;52.230;5.194;2023-05-24T13:17:27;5.85;;;2.85;;
53646;SDS011;39550;52.230;5.194;2023-05-24T13:19:53;6.70;;;3.13;;
53646;SDS011;39550;52.230;5.194;2023-05-24T13:22:19;6.70;;;3.40;;
53646;SDS011;39550;52.230;5.194;2023-05-24T13:24:45;7.47;;;3.00;;
53646;SDS011;39550;52.230;5.194;2023-05-24T13:27:10;6.05;;;2.95;;
53646;SDS011;39550;52.230;5.194;2023-05-24T13:29:36;6.80;;;2.95;;
53646;SDS011;39550;52.230;5.194;2023-05-24T13:32:01;7.65;;;3.50;;
53646;SDS011;39550;52.230;5.194;2023-05-24T13:34:27;7.63;;;3.28;;
53646;SDS011;39550;52.230;5.194;2023-05-24T13:36:52;8.43;;;3.17;;
53646;SDS011;39550;52.230;5.194;2023-05-24T13:39:19;8.27;;;3.20;;
53646;SDS011;39550;52.230;5.194;2023-05-24T13:41:45;5.85;;;3.20;;
53646;SDS011;39550;52.230;5.194;2023-05-24T13:44:12;8.52;;;3.75;;
53646;SDS011;39550;52.230;5.194;2023-05-24T13:46:38;6.70;;;2.90;;
53646;SDS011;39550;52.230;5.194;2023-05-24T13:49:04;6.28;;;2.95;;
53646;SDS011;39550;52.230;5.194;2023-05-24T13:51:30;5.47;;;2.72;;
53646;SDS011;39550;52.230;5.194;2023-05-24T13:53:56;8.20;;;2.85;;
53646;SDS011;39550;52.230;5.194;2023-05-24T13:56:22;6.18;;;2.70;;
53646;SDS011;39550;52.230;5.194;2023-05-24T13:58:48;5.75;;;2.78;;
53646;SDS011;39550;52.230;5.194;2023-05-24T14:01:14;8.18;;;3.05;;
53646;SDS011;39550;52.230;5.194;2023-05-24T14:03:40;6.10;;;2.70;;
53646;SDS011;39550;52.230;5.194;2023-05-24T14:06:06;7.03;;;3.40;;
53646;SDS011;39550;52.230;5.194;2023-05-24T14:08:32;6.80;;;3.33;;
53646;SDS011;39550;52.230;5.194;2023-05-24T14:10:58;7.30;;;3.03;;
53646;SDS011;39550;52.230;5.194;2023-05-24T14:13:23;6.60;;;3.22;;
53646;SDS011;39550;52.230;5.194;2023-05-24T14:15:48;7.38;;;3.80;;
53646;SDS011;39550;52.230;5.194;2023-05-24T14:18:14;7.38;;;3.42;;
53646;SDS011;39550;52.230;5.194;2023-05-24T14:20:40;5.22;;;2.50;;
53646;SDS011;39550;52.230;5.194;2023-05-24T14:23:06;5.93;;;3.15;;
53646;SDS011;39550;52.230;5.194;2023-05-24T14:25:32;6.55;;;3.00;;
53646;SDS011;39550;52.230;5.194;2023-05-24T14:27:57;7.60;;;3.35;;
53646;SDS011;39550;52.230;5.194;2023-05-24T14:30:23;5.43;;;3.10;;
53646;SDS011;39550;52.230;5.194;2023-05-24T14:32:49;6.13;;;2.75;;
53646;SDS011;39550;52.230;5.194;2023-05-24T14:35:14;5.50;;;2.55;;
53646;SDS011;39550;52.230;5.194;2023-05-24T14:37:40;8.32;;;2.85;;
53646;SDS011;39550;52.230;5.194;2023-05-24T14:40:05;6.75;;;3.22;;
53646;SDS011;39550;52.230;5.194;2023-05-24T14:42:31;6.32;;;2.75;;
53646;SDS011;39550;52.230;5.194;2023-05-24T14:44:56;7.07;;;2.80;;
53646;SDS011;39550;52.230;5.194;2023-05-24T14:47:22;6.60;;;3.10;;
53646;SDS011;39550;52.230;5.194;2023-05-24T14:49:47;6.10;;;2.80;;
53646;SDS011;39550;52.230;5.194;2023-05-24T14:52:12;8.73;;;3.10;;
53646;SDS011;39550;52.230;5.194;2023-05-24T14:54:38;5.85;;;2.80;;
53646;SDS011;39550;52.230;5.194;2023-05-24T14:57:03;6.30;;;3.00;;
53646;SDS011;39550;52.230;5.194;2023-05-24T14:59:31;8.07;;;3.53;;
53646;SDS011;39550;52.230;5.194;2023-05-24T15:01:56;6.13;;;3.15;;
53646;SDS011;39550;52.230;5.194;2023-05-24T15:04:22;6.65;;;2.90;;
53646;SDS011;39550;52.230;5.194;2023-05-24T15:06:47;5.40;;;2.90;;
53646;SDS011;39550;52.230;5.194;2023-05-24T15:09:12;7.28;;;3.13;;
53646;SDS011;39550;52.230;5.194;2023-05-24T15:11:37;6.70;;;3.08;;
53646;SDS011;39550;52.230;5.194;2023-05-24T15:14:03;7.63;;;3.75;;
53646;SDS011;39550;52.230;5.194;2023-05-24T15:16:28;8.07;;;3.00;;
53646;SDS011;39550;52.230;5.194;2023-05-24T15:18:53;6.68;;;3.22;;
53646;SDS011;39550;52.230;5.194;2023-05-24T15:21:19;6.13;;;3.10;;